Time;durP1;ratioP1;P1;durP2;ratioP2;P2;SDS_P1;SDS_P2;PMS_P1;PMS_P2;Temp;Humidity;BMP_temperature;BMP_pressure;BME280_temperature;BME280_humidity;BME280_pressure;Samples;Min_cycle;Max_cycle;Signal;HPM_P1;HPM_P2
2022/05/30 00:00:39;;;;;;;14.07;7.47;;;;;;;5.76;66.64;93263.13;5150410;27;20050;-51
2022/05/30 00:03:06;;;;;;;8.85;5.28;;;;;;;5.59;66.25;93256.63;5151198;27;20057;-51
2022/05/30 00:05:33;;;;;;;5.05;3.15;;;;;;;5.53;65.32;93258.22;5151227;27;20119;-50
2022/05/30 00:08:00;;;;;;;4.80;2.30;;;;;;;5.44;65.63;93253.22;5132130;27;20053;-47
2022/05/30 00:10:28;;;;;;;4.78;2.40;;;;;;;5.39;66.35;93240.84;5150976;27;20083;-48
2022/05/30 00:12:55;;;;;;;4.40;2.30;;;;;;;5.41;66.56;93240.41;5150500;27;20058;-49
2022/05/30 00:15:23;;;;;;;4.15;2.30;;;;;;;5.44;67.23;93234.19;5151246;27;20069;-49
2022/05/30 00:17:54;;;;;;;6.28;2.90;;;;;;;5.27;66.37;93229.63;5150528;27;20057;-49
2022/05/30 00:20:22;;;;;;;5.05;2.65;;;;;;;5.20;66.09;93247.53;5151150;27;20045;-48
2022/05/30 00:22:49;;;;;;;3.67;2.20;;;;;;;5.14;66.39;93243.69;5150047;27;20042;-48
2022/05/30 00:25:17;;;;;;;3.77;2.43;;;;;;;5.17;66.12;93240.19;5132008;27;20107;-50
2022/05/30 00:27:43;;;;;;;4.53;2.00;;;;;;;5.15;66.09;93236.28;5129690;27;20461;-49
2022/05/30 00:30:12;;;;;;;3.95;2.00;;;;;;;5.03;68.01;93237.56;5132503;27;20043;-50
2022/05/30 00:32:40;;;;;;;5.43;2.90;;;;;;;4.99;67.14;93231.34;5133419;27;20047;-51
2022/05/30 00:35:07;;;;;;;4.32;2.70;;;;;;;5.03;66.88;93231.31;5134148;27;20065;-52
2022/05/30 00:37:34;;;;;;;4.30;2.10;;;;;;;4.97;66.97;93230.94;5134049;27;20065;-46
2022/05/30 00:40:01;;;;;;;4.38;2.10;;;;;;;5.00;67.08;93238.34;5133281;27;20032;-46
2022/05/30 00:42:28;;;;;;;4.18;2.20;;;;;;;4.97;67.59;93230.94;5133697;27;20043;-52
2022/05/30 00:44:55;;;;;;;4.20;2.20;;;;;;;5.00;67.57;93230.16;5133200;27;20047;-50
2022/05/30 00:47:22;;;;;;;5.55;2.42;;;;;;;5.00;67.37;93230.94;5133801;27;20070;-48
2022/05/30 00:49:49;;;;;;;5.00;2.20;;;;;;;4.95;67.35;93222.41;5132840;27;20047;-47
2022/05/30 00:52:28;;;;;;;4.30;2.15;;;;;;;4.89;68.04;93227.53;5133361;27;20066;-49
2022/05/30 00:55:04;;;;;;;3.33;2.10;;;;;;;4.89;67.70;93219.38;5132882;27;20103;-48
2022/05/30 00:57:32;;;;;;;3.42;2.00;;;;;;;4.84;68.52;93225.19;5133721;27;20107;-45
2022/05/30 01:00:11;;;;;;;4.00;2.20;;;;;;;4.81;68.14;93223.28;5132676;27;20063;-46
2022/05/30 01:02:40;;;;;;;6.67;3.53;;;;;;;4.80;68.08;93219.78;5133746;27;20039;-47
2022/05/30 01:07:57;;;;;;;6.35;2.25;;;;;;;4.80;68.64;93227.16;5132487;27;20414;-46
2022/05/30 01:10:24;;;;;;;4.97;2.50;;;;;;;4.77;68.76;93230.69;5133511;27;20065;-53
2022/05/30 01:12:55;;;;;;;4.35;2.40;;;;;;;4.72;68.85;93229.13;5132429;27;20039;-48
2022/05/30 01:15:27;;;;;;;4.03;2.40;;;;;;;4.70;69.07;93230.69;5115001;27;20466;-53
2022/05/30 01:17:59;;;;;;;5.15;2.65;;;;;;;4.70;69.20;93227.97;5132031;27;20403;-53
2022/05/30 01:20:42;;;;;;;4.55;2.50;;;;;;;4.63;69.29;93226.09;5132878;27;20077;-52
2022/05/30 01:23:17;;;;;;;4.28;2.40;;;;;;;4.61;69.94;93231.13;5132489;27;20188;-47
2022/05/30 01:26:23;;;;;;;3.78;2.25;;;;;;;4.59;69.72;93220.66;5153041;27;20554;-55
2022/05/30 01:28:59;;;;;;;4.40;2.60;;;;;;;4.52;69.85;93219.91;5152907;27;20517;-52
2022/05/30 01:31:25;;;;;;;4.13;2.30;;;;;;;4.49;69.06;93221.47;5135269;27;20273;-50
2022/05/30 01:33:53;;;;;;;4.15;2.40;;;;;;;4.36;70.10;93218.38;5152796;27;20046;-48
2022/05/30 01:36:24;;;;;;;5.03;2.38;;;;;;;4.08;70.54;93223.91;5153392;27;20045;-52
2022/05/30 01:38:51;;;;;;;4.55;2.70;;;;;;;3.95;71.09;93218.13;5152545;27;20043;-57
2022/05/30 01:41:18;;;;;;;3.63;2.27;;;;;;;4.02;71.43;93218.09;5134662;27;20038;-46
2022/05/30 01:43:45;;;;;;;4.47;2.67;;;;;;;4.00;72.06;93215.00;5152569;27;20047;-51
2022/05/30 01:46:17;;;;;;;5.45;2.60;;;;;;;3.84;72.29;93204.53;5153322;27;20045;-49
2022/05/30 01:48:45;;;;;;;4.82;2.60;;;;;;;3.80;72.19;93210.00;5152519;27;20439;-48
2022/05/30 01:51:17;;;;;;;6.43;2.60;;;;;;;3.83;72.44;93205.72;5153264;27;20372;-53
2022/05/30 01:53:44;;;;;;;6.13;2.80;;;;;;;3.82;73.22;93208.81;5140821;27;20039;-57
2022/05/30 01:56:11;;;;;;;6.85;2.80;;;;;;;3.83;72.54;93196.81;5132483;27;20050;-52
2022/05/30 01:58:37;;;;;;;5.32;2.70;;;;;;;3.85;72.57;93200.69;5132563;27;20035;-52
2022/05/30 02:01:20;;;;;;;4.85;2.67;;;;;;;3.69;73.09;93192.94;5112820;27;20041;-50
2022/05/30 02:03:49;;;;;;;5.65;2.53;;;;;;;3.63;73.19;93191.00;5131672;27;20079;-56
2022/05/30 02:06:16;;;;;;;5.10;2.60;;;;;;;3.71;73.06;93197.97;5132222;27;20415;-51
2022/05/30 02:08:44;;;;;;;4.45;2.35;;;;;;;3.72;73.13;93196.81;5131711;27;20407;-53
2022/05/30 02:11:11;;;;;;;4.72;2.72;;;;;;;3.72;72.98;93197.59;5132428;27;20073;-49
2022/05/30 02:13:38;;;;;;;5.30;2.88;;;;;;;3.75;72.83;93191.38;5132149;27;20039;-55
2022/05/30 02:18:58;;;;;;;4.43;2.50;;;;;;;3.87;72.01;93187.50;5131321;27;20043;-48
2022/05/30 02:21:25;;;;;;;4.57;2.70;;;;;;;3.84;72.19;93182.81;5113448;27;20047;-47
2022/05/30 02:23:52;;;;;;;4.47;2.65;;;;;;;3.86;71.72;93182.44;5137982;27;20045;-49
2022/05/30 02:26:19;;;;;;;4.47;2.70;;;;;;;3.87;71.55;93182.06;5133886;27;20043;-54
2022/05/30 02:28:46;;;;;;;5.30;2.95;;;;;;;3.83;72.12;93183.25;5151721;27;20042;-55
2022/05/30 02:31:13;;;;;;;4.53;2.87;;;;;;;3.81;72.24;93189.06;5152608;27;20467;-46
2022/05/30 02:36:40;;;;;;;21.52;10.75;;;;;;;3.68;71.94;93185.97;5152433;27;20418;-53
2022/05/30 02:39:09;;;;;;;6.53;3.92;;;;;;;3.67;72.27;93176.28;5151234;27;20683;-48
2022/05/30 02:41:36;;;;;;;6.82;3.20;;;;;;;3.68;72.04;93179.75;5152125;27;20051;-48
2022/05/30 02:44:04;;;;;;;6.03;2.97;;;;;;;3.62;71.52;93168.50;5151405;27;20035;-46
2022/05/30 02:46:31;;;;;;;4.53;2.80;;;;;;;3.41;72.65;93166.59;5133550;27;20046;-46
2022/05/30 02:48:58;;;;;;;4.57;2.72;;;;;;;3.46;72.75;93160.81;5133037;27;20047;-52
2022/05/30 02:51:25;;;;;;;4.00;2.80;;;;;;;3.46;72.79;93168.16;5151947;27;20042;-49
2022/05/30 02:53:52;;;;;;;5.45;2.70;;;;;;;3.45;73.05;93161.19;5138218;27;20040;-50
2022/05/30 02:56:19;;;;;;;5.30;2.90;;;;;;;3.45;73.30;93159.25;5131417;27;20087;-51
2022/05/30 02:58:47;;;;;;;5.95;2.90;;;;;;;3.44;73.51;93170.47;5130849;27;20058;-50
2022/05/30 03:01:14;;;;;;;5.70;3.20;;;;;;;3.37;74.09;93171.25;5131271;27;20057;-48
2022/05/30 03:03:42;;;;;;;4.75;3.10;;;;;;;3.21;74.50;93171.63;5130863;27;20387;-47
2022/05/30 03:06:10;;;;;;;5.45;3.10;;;;;;;2.77;75.67;93162.66;5130662;27;20090;-50
2022/05/30 03:08:36;;;;;;;4.47;3.00;;;;;;;2.73;75.43;93170.03;5131200;27;20427;-50
2022/05/30 03:11:04;;;;;;;3.95;2.58;;;;;;;2.82;75.37;93168.88;5130343;27;20414;-48
2022/05/30 03:13:30;;;;;;;5.05;3.22;;;;;;;2.83;75.45;93168.50;5130903;27;20049;-51
2022/05/30 03:15:58;;;;;;;7.88;3.38;;;;;;;2.83;75.84;93173.16;5130456;27;20403;-50
2022/05/30 03:18:26;;;;;;;5.85;3.35;;;;;;;2.71;76.25;93175.03;5131027;27;20053;-46
2022/05/30 03:20:53;;;;;;;5.07;3.20;;;;;;;2.58;76.93;93182.75;5130084;27;20043;-48
2022/05/30 03:23:20;;;;;;;6.60;3.25;;;;;;;2.66;76.92;93180.84;5132845;27;20051;-47
2022/05/30 03:25:47;;;;;;;4.75;3.00;;;;;;;2.63;76.21;93183.53;5150729;27;20050;-49
2022/05/30 03:28:14;;;;;;;5.55;2.83;;;;;;;2.69;75.70;93184.72;5151152;27;20095;-55
2022/05/30 03:30:41;;;;;;;5.18;3.20;;;;;;;2.77;75.52;93186.28;5132509;27;20038;-50
2022/05/30 03:33:08;;;;;;;5.83;3.27;;;;;;;2.73;75.67;93188.22;5151564;27;20049;-55
2022/05/30 03:35:37;;;;;;;5.43;3.13;;;;;;;2.74;75.75;93190.56;5151518;27;20422;-52
2022/05/30 03:38:05;;;;;;;5.93;2.90;;;;;;;2.74;75.79;93184.38;5150881;27;20039;-53
2022/05/30 03:40:31;;;;;;;5.45;3.00;;;;;;;2.63;76.53;93188.97;5133212;27;20045;-48
2022/05/30 03:42:58;;;;;;;5.35;2.90;;;;;;;2.66;76.59;93191.69;5150650;27;20051;-48
2022/05/30 03:45:25;;;;;;;5.20;3.17;;;;;;;2.71;76.54;93180.47;5151258;27;20067;-50
2022/05/30 03:47:52;;;;;;;6.88;3.00;;;;;;;2.74;76.21;93182.41;5150465;27;20429;-49
2022/05/30 03:50:23;;;;;;;5.40;3.35;;;;;;;2.82;75.98;93182.41;5151445;27;20053;-53
2022/05/30 03:52:56;;;;;;;5.57;3.30;;;;;;;2.83;76.39;93186.69;5145789;27;20139;-48
2022/05/30 03:55:23;;;;;;;5.10;3.42;;;;;;;2.88;76.29;93181.69;5130931;27;20054;-52
2022/05/30 03:57:51;;;;;;;6.00;3.90;;;;;;;2.95;76.67;93187.09;5130069;27;20036;-50
2022/05/30 04:00:20;;;;;;;6.38;3.60;;;;;;;2.92;76.21;93187.13;5130576;27;20035;-50
2022/05/30 04:02:48;;;;;;;7.28;4.32;;;;;;;2.93;75.58;93186.69;5129920;27;20407;-50
2022/05/30 04:05:20;;;;;;;8.18;5.35;;;;;;;2.87;75.33;93193.66;5132728;27;20058;-47
2022/05/30 04:07:47;;;;;;;8.80;5.35;;;;;;;2.83;75.61;93198.31;5133858;27;20054;-54
2022/05/30 04:10:14;;;;;;;8.10;4.70;;;;;;;2.98;75.02;93202.59;5134365;27;20051;-47
2022/05/30 04:12:40;;;;;;;9.55;6.05;;;;;;;3.03;74.31;93201.44;5115768;27;20045;-47
2022/05/30 04:15:11;;;;;;;14.27;7.18;;;;;;;3.02;74.10;93196.41;5115372;27;20065;-49
2022/05/30 04:17:39;;;;;;;10.25;5.97;;;;;;;2.84;74.29;93197.16;5116123;27;20055;-46
2022/05/30 04:20:06;;;;;;;9.90;5.80;;;;;;;3.02;74.54;93201.81;5132805;27;21643;-47
2022/05/30 04:22:34;;;;;;;10.37;5.80;;;;;;;2.91;74.96;93204.50;5133930;27;20039;-51
2022/05/30 04:25:01;;;;;;;10.13;5.90;;;;;;;3.12;74.50;93211.91;5150066;27;20039;-48
2022/05/30 04:27:28;;;;;;;10.02;5.43;;;;;;;3.32;73.96;93212.31;5154472;27;20047;-53
2022/05/30 04:29:54;;;;;;;8.00;4.63;;;;;;;3.39;73.56;93217.75;5135628;27;20050;-53
2022/05/30 04:32:22;;;;;;;8.35;4.35;;;;;;;3.31;74.70;93211.53;5154562;27;20078;-54
2022/05/30 04:34:50;;;;;;;9.20;4.00;;;;;;;3.51;74.04;93214.66;5154002;27;20115;-47
2022/05/30 04:37:17;;;;;;;7.90;4.78;;;;;;;3.73;73.48;93210.00;5154414;27;20051;-48
2022/05/30 04:39:44;;;;;;;9.95;5.28;;;;;;;3.90;73.55;93210.34;5153987;27;20045;-48
2022/05/30 04:42:10;;;;;;;8.65;4.70;;;;;;;3.73;73.29;93201.84;5154119;27;20042;-47
2022/05/30 04:44:40;;;;;;;8.85;4.70;;;;;;;3.93;73.54;93207.63;5153843;27;20050;-50
2022/05/30 04:47:09;;;;;;;7.33;4.17;;;;;;;4.26;72.92;93202.91;5154117;27;20045;-52
2022/05/30 04:49:36;;;;;;;8.93;4.90;;;;;;;3.56;75.66;93208.84;5154376;27;20348;-54
2022/05/30 04:52:04;;;;;;;9.38;5.05;;;;;;;3.93;75.06;93207.63;5153265;27;20043;-48
2022/05/30 04:54:32;;;;;;;7.72;4.55;;;;;;;4.08;74.33;93199.47;5135475;27;20040;-49
2022/05/30 04:56:59;;;;;;;8.00;4.30;;;;;;;4.55;72.72;93203.59;5132682;27;20108;-55
2022/05/30 04:59:26;;;;;;;9.07;4.73;;;;;;;4.84;71.22;93195.28;5133509;27;20403;-48
2022/05/30 05:01:55;;;;;;;11.30;5.07;;;;;;;4.66;71.59;93189.19;5119239;27;20399;-46
2022/05/30 05:04:22;;;;;;;7.40;4.68;;;;;;;4.65;71.03;93193.06;5151894;27;20125;-51
2022/05/30 05:06:49;;;;;;;10.77;4.63;;;;;;;4.45;73.27;93196.25;5153688;27;20110;-48
2022/05/30 05:09:16;;;;;;;7.03;4.40;;;;;;;5.27;70.46;93189.63;5154097;27;20523;-49
2022/05/30 05:11:46;;;;;;;11.97;5.17;;;;;;;4.66;72.20;93192.66;5153952;27;20047;-49
2022/05/30 05:14:15;;;;;;;8.00;4.55;;;;;;;5.31;70.02;93193.09;5153998;27;20045;-49
2022/05/30 05:16:42;;;;;;;7.78;4.70;;;;;;;5.55;69.13;93185.09;5152987;27;20043;-48
2022/05/30 05:19:10;;;;;;;10.40;4.90;;;;;;;5.79;68.43;93195.03;5153529;27;20047;-47
2022/05/30 05:21:39;;;;;;;9.05;4.43;;;;;;;6.23;67.62;93198.13;5153175;27;20051;-51
2022/05/30 05:24:08;;;;;;;8.43;4.63;;;;;;;6.79;65.79;93212.28;5152411;27;20616;-48
2022/05/30 05:26:35;;;;;;;7.07;4.70;;;;;;;10.05;55.49;93213.00;5153466;27;20050;-53
2022/05/30 05:29:02;;;;;;;8.77;4.60;;;;;;;12.95;48.94;93213.84;5152494;27;20406;-51
2022/05/30 05:31:34;;;;;;;7.38;3.70;;;;;;;13.77;44.14;93221.84;5153533;27;20043;-49
2022/05/30 05:34:08;;;;;;;7.70;3.80;;;;;;;13.96;44.99;93221.91;5152562;27;20047;-51
2022/05/30 05:36:39;;;;;;;7.63;3.60;;;;;;;13.65;44.80;93230.97;5153681;27;20053;-52
2022/05/30 05:39:06;;;;;;;6.38;4.00;;;;;;;12.61;46.92;93223.66;5152215;27;20358;-49
2022/05/30 05:41:33;;;;;;;7.68;5.55;;;;;;;10.75;51.70;93236.31;5153136;27;20051;-49
2022/05/30 05:44:00;;;;;;;5.95;4.15;;;;;;;11.73;49.51;93234.31;5152548;27;20467;-50
2022/05/30 05:46:30;;;;;;;6.65;3.90;;;;;;;13.62;45.40;93225.59;5152954;27;20419;-55
2022/05/30 05:48:59;;;;;;;5.30;3.40;;;;;;;14.45;43.18;93229.41;5152656;27;20055;-51
2022/05/30 05:51:27;;;;;;;6.15;3.45;;;;;;;15.43;40.88;93224.03;5152837;27;20080;-53
2022/05/30 05:53:54;;;;;;;6.50;3.70;;;;;;;12.43;46.58;93238.00;5139524;27;20043;-56
2022/05/30 05:56:24;;;;;;;6.35;3.88;;;;;;;11.54;49.62;93242.34;5131847;27;20047;-48
2022/05/30 05:58:52;;;;;;;7.25;4.00;;;;;;;11.39;51.15;93238.47;5131798;27;20041;-49
2022/05/30 06:01:24;;;;;;;7.17;4.20;;;;;;;13.23;45.45;93238.81;5131842;27;20039;-51
2022/05/30 06:03:57;;;;;;;6.10;3.75;;;;;;;13.77;45.83;93243.13;5131696;27;20162;-51
2022/05/30 06:06:26;;;;;;;6.38;4.00;;;;;;;14.46;44.09;93235.69;5113945;27;20043;-54
2022/05/30 06:08:56;;;;;;;6.60;3.85;;;;;;;16.21;40.63;93229.97;5131672;27;20058;-55
2022/05/30 06:11:24;;;;;;;5.88;3.88;;;;;;;16.11;40.23;93226.47;5132002;27;20051;-52
2022/05/30 06:13:51;;;;;;;7.60;3.90;;;;;;;16.60;39.66;93227.31;5131575;27;20031;-53
2022/05/30 06:16:22;;;;;;;8.68;4.07;;;;;;;17.55;37.56;93222.84;5131741;27;20047;-55
2022/05/30 06:18:51;;;;;;;7.60;3.72;;;;;;;19.75;33.24;93222.31;5131541;27;20407;-55
2022/05/30 06:21:19;;;;;;;8.27;3.53;;;;;;;19.74;34.15;93226.38;5131270;27;20062;-54
2022/05/30 06:23:46;;;;;;;5.35;3.63;;;;;;;20.60;32.13;93225.75;5137295;27;20348;-52
2022/05/30 06:26:14;;;;;;;6.13;3.90;;;;;;;20.66;31.85;93229.34;5152049;27;20041;-56
2022/05/30 06:28:44;;;;;;;6.93;3.50;;;;;;;22.40;29.52;93229.06;5151369;27;20403;-55
2022/05/30 06:31:17;;;;;;;5.03;3.30;;;;;;;23.88;27.12;93230.88;5152304;27;20047;-52
2022/05/30 06:33:44;;;;;;;4.95;3.50;;;;;;;21.58;30.42;93230.00;5151920;27;20049;-49
2022/05/30 06:36:14;;;;;;;8.82;3.58;;;;;;;23.41;27.40;93235.69;5152055;27;20038;-51
2022/05/30 06:38:42;;;;;;;5.53;3.10;;;;;;;24.68;26.31;93231.03;5133055;27;20045;-52
2022/05/30 06:41:10;;;;;;;6.75;3.20;;;;;;;25.52;24.99;93232.19;5151848;27;20410;-53
2022/05/30 06:43:37;;;;;;;7.50;3.50;;;;;;;25.45;25.48;93236.31;5133569;27;20463;-52
2022/05/30 06:46:05;;;;;;;6.50;3.03;;;;;;;25.83;24.24;93227.91;5151014;27;20270;-52
2022/05/30 06:48:32;;;;;;;5.57;3.00;;;;;;;26.27;23.55;93233.44;5152037;27;20051;-55
2022/05/30 06:51:03;;;;;;;5.20;2.93;;;;;;;23.79;26.56;93233.25;5151278;27;20073;-54
2022/05/30 06:53:29;;;;;;;4.70;3.00;;;;;;;25.55;24.62;93233.91;5142392;27;20396;-54
2022/05/30 06:55:56;;;;;;;6.55;2.70;;;;;;;27.60;21.49;93238.50;5130760;27;20432;-51
2022/05/30 06:58:24;;;;;;;4.97;2.50;;;;;;;26.62;21.97;93232.38;5130996;27;20047;-48
2022/05/30 07:00:51;;;;;;;4.88;2.45;;;;;;;27.35;20.94;93241.56;5130811;27;20046;-50
2022/05/30 07:03:18;;;;;;;4.47;2.30;;;;;;;27.15;19.75;93240.13;5130949;27;20377;-53
2022/05/30 07:05:45;;;;;;;4.65;2.50;;;;;;;27.06;20.05;93246.97;5130591;27;20051;-47
2022/05/30 07:08:12;;;;;;;4.57;2.30;;;;;;;24.22;22.95;93246.69;5130630;27;20050;-50
2022/05/30 07:10:40;;;;;;;4.78;2.17;;;;;;;26.88;20.54;93242.16;5130406;27;20442;-47
2022/05/30 07:13:07;;;;;;;4.18;2.03;;;;;;;26.45;20.63;93246.69;5112570;28;20496;-55
2022/05/30 07:15:36;;;;;;;3.43;1.80;;;;;;;24.14;22.67;93249.28;5130909;27;20051;-57
2022/05/30 07:18:08;;;;;;;4.35;1.58;;;;;;;26.38;19.18;93233.25;5130419;27;20122;-63
2022/05/30 07:20:35;;;;;;;5.55;1.58;;;;;;;25.27;20.27;93248.28;5131149;27;20036;-53
2022/05/30 07:23:02;;;;;;;4.22;1.77;;;;;;;23.81;21.98;93253.84;5130401;27;20410;-55
2022/05/30 07:25:28;;;;;;;4.60;1.70;;;;;;;21.20;24.64;93259.28;5151349;27;20116;-51
2022/05/30 07:27:55;;;;;;;3.30;1.73;;;;;;;24.13;22.08;93250.59;5151216;27;20398;-51
2022/05/30 07:30:28;;;;;;;3.13;1.50;;;;;;;23.76;22.27;93256.66;5151456;27;20045;-51
2022/05/30 07:32:56;;;;;;;4.10;1.67;;;;;;;24.23;22.04;93248.97;5150701;27;20413;-50
2022/05/30 07:35:23;;;;;;;3.13;1.50;;;;;;;25.67;20.96;93251.38;5151209;27;20475;-52
2022/05/30 07:37:50;;;;;;;3.28;1.33;;;;;;;27.60;17.69;93249.78;5151446;27;20396;-53
2022/05/30 07:40:18;;;;;;;4.20;2.10;;;;;;;24.24;20.69;93253.28;5155719;27;20065;-51
2022/05/30 07:42:45;;;;;;;3.42;1.52;;;;;;;25.09;19.64;93244.91;5155434;27;20069;-57
2022/05/30 07:45:12;;;;;;;3.60;1.60;;;;;;;27.90;17.84;93246.59;5155546;27;20045;-48
2022/05/30 07:47:39;;;;;;;3.63;1.35;;;;;;;28.32;16.50;93249.50;5155287;27;20046;-52
2022/05/30 07:50:08;;;;;;;4.18;1.45;;;;;;;29.12;15.81;93251.19;5135872;27;20776;-57
2022/05/30 07:52:35;;;;;;;3.37;1.37;;;;;;;25.71;18.50;93249.03;5153476;27;20422;-53
2022/05/30 07:55:03;;;;;;;2.63;1.40;;;;;;;23.81;20.54;93253.09;5134068;27;20416;-54
2022/05/30 08:00:15;;;;;;;3.65;1.70;;;;;;;20.75;23.78;93260.59;5133557;27;20343;-50
2022/05/30 08:02:42;;;;;;;3.42;1.30;;;;;;;26.63;17.80;93245.16;5134136;27;20043;-52
2022/05/30 08:05:14;;;;;;;3.07;1.23;;;;;;;27.59;16.50;93251.09;5134439;27;20046;-51
2022/05/30 08:07:44;;;;;;;3.80;1.50;;;;;;;28.54;16.08;93247.50;5133905;27;20046;-53
2022/05/30 08:10:13;;;;;;;3.58;1.30;;;;;;;27.70;16.48;93240.31;5134250;27;20043;-52
2022/05/30 08:12:39;;;;;;;3.05;1.33;;;;;;;27.22;17.48;93247.16;5134030;27;20039;-52
2022/05/30 08:15:08;;;;;;;3.28;1.40;;;;;;;27.92;16.66;93255.28;5134223;27;20049;-56
2022/05/30 08:17:35;;;;;;;3.63;1.20;;;;;;;28.00;16.34;93250.47;5134535;27;20061;-50
2022/05/30 08:20:04;;;;;;;3.53;1.30;;;;;;;27.39;16.59;93253.28;5133815;27;20091;-51
2022/05/30 08:22:34;;;;;;;8.13;1.42;;;;;;;26.48;17.28;93248.44;5133823;27;20425;-53
2022/05/30 08:25:05;;;;;;;2.47;1.10;;;;;;;26.89;17.52;93250.06;5149982;27;20043;-56
2022/05/30 08:27:32;;;;;;;5.10;1.48;;;;;;;24.99;18.73;93251.38;5154095;27;20043;-54
2022/05/30 08:29:58;;;;;;;3.30;1.20;;;;;;;27.29;16.49;93249.38;5154260;27;20049;-52
2022/05/30 08:32:37;;;;;;;3.65;1.30;;;;;;;27.95;16.03;93248.56;5151522;27;20042;-51
2022/05/30 08:35:05;;;;;;;2.72;1.10;;;;;;;29.25;14.38;93246.19;5154591;27;20034;-56
2022/05/30 08:37:34;;;;;;;2.85;1.27;;;;;;;30.04;14.49;93248.88;5154558;27;20057;-53
2022/05/30 08:43:25;;;;;;;3.27;1.00;;;;;;;30.33;13.72;93243.16;5118054;27;20405;-51
2022/05/30 08:46:15;;;;;;;7.40;1.10;;;;;;;30.51;13.72;93244.88;5153723;27;20130;-49
2022/05/30 08:48:52;;;;;;;4.82;1.33;;;;;;;28.01;14.59;93237.91;5153938;27;20399;-48
2022/05/30 08:51:37;;;;;;;3.28;1.15;;;;;;;29.19;14.16;93242.00;5153435;27;20043;-53
2022/05/30 08:54:05;;;;;;;4.32;1.25;;;;;;;23.92;18.58;93242.59;5153265;27;20579;-55
2022/05/30 08:56:35;;;;;;;2.63;1.00;;;;;;;26.34;17.20;93241.25;5154095;27;20068;-50
2022/05/30 08:59:13;;;;;;;3.40;1.20;;;;;;;25.25;17.22;93243.22;5153555;27;20471;-51
2022/05/30 09:01:49;;;;;;;4.03;1.40;;;;;;;23.66;18.69;93244.97;5153356;27;20049;-48
2022/05/30 09:04:48;;;;;;;3.75;1.35;;;;;;;25.05;17.83;93243.66;5154148;27;20050;-52
2022/05/30 09:07:41;;;;;;;2.97;1.10;;;;;;;28.44;15.23;93250.00;5153007;27;20072;-54
2022/05/30 09:10:18;;;;;;;3.13;1.10;;;;;;;21.68;20.91;93253.63;5153157;27;20043;-54
2022/05/30 09:12:54;;;;;;;3.08;1.20;;;;;;;23.77;19.02;93250.56;5153713;27;20049;-52
2022/05/30 09:15:35;;;;;;;2.63;1.10;;;;;;;22.18;20.56;93248.63;5153853;27;20057;-52
2022/05/30 09:18:15;;;;;;;4.70;1.40;;;;;;;22.48;20.18;93246.88;5134970;27;20054;-54
2022/05/30 09:20:41;;;;;;;2.85;1.10;;;;;;;22.34;20.82;93247.88;5153187;27;20043;-52
2022/05/30 09:23:11;;;;;;;4.03;1.37;;;;;;;21.20;22.01;93256.50;5131168;27;20035;-55
2022/05/30 09:26:07;;;;;;;3.75;1.50;;;;;;;21.24;22.40;93245.84;5112706;27;20044;-54
2022/05/30 09:28:39;;;;;;;2.97;1.38;;;;;;;21.70;21.88;93244.75;5111486;27;20190;-52
2022/05/30 09:31:21;;;;;;;3.45;1.50;;;;;;;19.48;24.90;93251.38;5111607;27;20651;-52
2022/05/30 09:33:56;;;;;;;4.03;1.60;;;;;;;20.42;23.59;93255.50;5111894;27;20044;-55
2022/05/30 09:36:31;;;;;;;5.47;1.57;;;;;;;21.52;21.96;93248.78;5111822;27;20480;-47
2022/05/30 09:39:00;;;;;;;2.78;1.13;;;;;;;26.78;17.09;93244.63;5111706;27;20062;-50
2022/05/30 09:41:47;;;;;;;2.83;1.15;;;;;;;26.05;17.34;93254.22;5118942;27;20035;-56
2022/05/30 09:44:17;;;;;;;3.83;1.35;;;;;;;24.09;18.38;93252.91;5126441;27;20040;-60
2022/05/30 09:47:13;;;;;;;3.28;1.40;;;;;;;23.87;19.26;93267.84;5115884;27;20858;-51
2022/05/30 09:49:42;;;;;;;4.23;1.30;;;;;;;25.29;18.72;93245.72;5054892;28;21025;-51
2022/05/30 09:52:34;;;;;;;2.60;1.20;;;;;;;24.50;18.53;93255.66;5082283;28;20044;-49
2022/05/30 09:55:21;;;;;;;3.42;1.30;;;;;;;22.06;21.19;93259.03;5080308;28;20070;-50
2022/05/30 09:57:48;;;;;;;2.72;1.40;;;;;;;19.20;25.18;93254.59;5075156;28;20048;-52
2022/05/30 10:00:32;;;;;;;3.75;1.80;;;;;;;17.40;27.63;93266.44;5066696;28;20064;-53
2022/05/30 10:03:09;;;;;;;5.23;1.70;;;;;;;18.33;26.97;93264.28;5064587;28;20049;-52
2022/05/30 10:05:39;;;;;;;6.50;1.85;;;;;;;20.68;23.85;93261.03;5066295;28;20056;-51
2022/05/30 10:08:21;;;;;;;3.45;1.50;;;;;;;24.04;20.10;93260.06;5070826;28;20426;-52
2022/05/30 10:10:51;;;;;;;3.75;1.40;;;;;;;25.21;19.00;93262.44;5086813;28;20052;-53
2022/05/30 10:13:34;;;;;;;3.88;1.60;;;;;;;19.97;23.32;93271.13;5086597;28;20677;-51
2022/05/30 10:16:04;;;;;;;3.47;1.80;;;;;;;21.21;22.67;93264.38;5069770;28;20067;-53
2022/05/30 10:18:38;;;;;;;3.28;1.65;;;;;;;25.05;18.98;93263.31;5079030;28;20055;-56
2022/05/30 10:21:25;;;;;;;3.20;1.42;;;;;;;25.83;17.69;93261.63;5086078;28;20055;-52
2022/05/30 10:30:15;;;;;;;4.27;1.60;;;;;;;27.55;15.82;93276.00;5066186;28;20052;-54
2022/05/30 10:33:06;;;;;;;3.58;1.40;;;;;;;24.67;17.16;93280.78;5066077;28;20408;-56
2022/05/30 10:35:52;;;;;;;4.07;1.42;;;;;;;19.25;23.61;93287.28;5066652;28;20125;-49
2022/05/30 10:38:41;;;;;;;3.95;1.60;;;;;;;17.60;25.88;93287.25;5083468;28;20667;-52
2022/05/30 10:41:23;;;;;;;5.25;1.85;;;;;;;18.64;24.98;93290.00;5084439;28;20058;-53
2022/05/30 10:44:20;;;;;;;3.40;1.60;;;;;;;20.99;21.38;93276.19;5084951;28;20056;-48
2022/05/30 10:47:11;;;;;;;3.22;1.40;;;;;;;20.67;21.72;93281.81;5086092;28;20046;-49
2022/05/30 10:49:46;;;;;;;3.10;1.40;;;;;;;21.09;21.64;93279.53;5086176;28;20108;-53
2022/05/30 10:52:21;;;;;;;5.13;2.03;;;;;;;18.03;24.72;93287.75;5085485;28;20047;-47
2022/05/30 10:54:56;;;;;;;5.50;1.77;;;;;;;17.68;27.05;93291.94;5065818;28;20090;-47
2022/05/30 10:57:47;;;;;;;6.53;1.50;;;;;;;17.74;26.03;93292.03;5064106;28;20451;-48
2022/05/30 11:00:20;;;;;;;4.25;1.70;;;;;;;18.21;25.21;93290.34;5065553;28;22206;-48
2022/05/30 11:03:10;;;;;;;3.67;1.60;;;;;;;18.93;24.17;93295.50;5065405;28;20779;-55
2022/05/30 11:05:47;;;;;;;3.33;1.50;;;;;;;20.19;23.66;93293.59;5065525;28;20048;-52
2022/05/30 11:08:34;;;;;;;3.65;1.80;;;;;;;17.97;24.15;93298.78;5064850;28;20759;-54
2022/05/30 11:11:19;;;;;;;3.57;1.50;;;;;;;18.76;24.46;93295.22;5080969;28;20438;-55
2022/05/30 11:13:59;;;;;;;4.50;1.90;;;;;;;15.88;28.00;93299.91;5084137;28;20050;-52
2022/05/30 11:16:53;;;;;;;3.72;1.50;;;;;;;18.20;25.67;93293.59;5084069;28;20054;-50
2022/05/30 11:19:40;;;;;;;3.58;1.58;;;;;;;19.41;24.94;93294.28;5064400;28;20056;-51
2022/05/30 11:22:18;;;;;;;4.20;1.50;;;;;;;17.76;25.75;93301.41;5064506;28;20165;-55
2022/05/30 11:24:51;;;;;;;3.60;1.67;;;;;;;16.21;27.62;93301.19;5065176;28;20056;-50
2022/05/30 11:27:27;;;;;;;3.00;1.50;;;;;;;17.41;26.48;93298.50;5065041;28;20533;-52
2022/05/30 11:29:54;;;;;;;3.60;1.50;;;;;;;18.67;24.31;93297.34;5065014;28;20052;-46
2022/05/30 11:32:42;;;;;;;4.80;1.70;;;;;;;17.82;24.99;93307.06;5065789;28;20388;-53
2022/05/30 11:35:32;;;;;;;4.70;1.42;;;;;;;19.67;23.24;93299.13;5064482;28;21722;-49
2022/05/30 11:38:05;;;;;;;2.50;1.40;;;;;;;20.01;23.23;93299.50;5064689;28;20063;-53
2022/05/30 11:40:53;;;;;;;3.05;1.40;;;;;;;19.70;22.46;93298.16;5065432;28;20053;-56
2022/05/30 11:43:52;;;;;;;3.97;1.58;;;;;;;19.40;23.14;93292.78;5063972;28;20091;-55
2022/05/30 11:46:28;;;;;;;3.10;1.40;;;;;;;19.66;22.73;93281.69;5064556;28;20222;-49
2022/05/30 11:49:05;;;;;;;2.63;1.35;;;;;;;19.69;23.34;93289.03;5064698;28;20044;-48
2022/05/30 11:51:43;;;;;;;4.60;1.53;;;;;;;18.91;22.92;93303.56;5065531;28;20049;-54
2022/05/30 11:54:19;;;;;;;3.15;1.50;;;;;;;19.88;23.30;93292.31;5074097;28;20116;-50
2022/05/30 11:57:31;;;;;;;4.35;1.52;;;;;;;20.29;21.95;93296.97;5079504;28;20447;-52
2022/05/30 12:00:14;;;;;;;4.78;1.50;;;;;;;19.95;23.09;93297.44;5068492;28;20048;-49
2022/05/30 12:02:49;;;;;;;3.67;1.42;;;;;;;19.34;23.25;93306.63;5084957;28;20306;-53
2022/05/30 12:05:37;;;;;;;3.77;1.40;;;;;;;19.97;22.72;93299.72;5067430;28;20054;-56
2022/05/30 12:08:16;;;;;;;4.22;1.60;;;;;;;20.91;23.79;93300.22;5081125;28;20076;-51
2022/05/30 12:10:52;;;;;;;3.10;1.70;;;;;;;21.20;22.27;93296.31;5084850;28;20040;-52
2022/05/30 12:13:58;;;;;;;4.00;1.50;;;;;;;19.29;23.73;93298.19;5085376;28;20052;-50
2022/05/30 12:16:40;;;;;;;3.85;1.50;;;;;;;19.72;23.12;93296.44;5063880;28;20752;-53
2022/05/30 12:25:34;;;;;;;3.83;1.23;;;;;;;18.84;23.21;93292.06;5080690;28;20816;-48